• Join FlightAware (Why Join?)
  • Login
  • US Flag 
10:22AM EDT


 

Airport Tracker/Info


-or-


 

Live Flight TrackerFlight Track Log ✈ N77HE ✈ 21-Mar-2014 ✈ KICT - KLBL

Flight Track Log - Related Links

Times and Time Zones

All times are in EDT time to prevent confusion due to time zone crossing. See the N77HE flight status page for this flight to view local times or setup timezone preferences in your user account.

Time Position Orientation Groundspeed Altitude Reporting Facility
EDT Latitude Longitude Course Direction KTS MPH feet Rate Location/Type
06:23PM 37.6911 -97.4067 256° West 132 152 3,100  Level Kansas City Center
06:23PM 37.6953 -97.4086 340° North 133 153 3,400 1,200 Climbing Kansas City Center
06:24PM 37.7061 -97.4547 287° West 167 192 4,500 1,080 Climbing Kansas City Center
06:25PM 37.6964 -97.4792 243° Southwest 163 188 5,100 1,200 Climbing Kansas City Center
06:25PM 37.6864 -97.5106 248° West 176 203 5,700 780 Climbing Kansas City Center
06:26PM 37.6794 -97.5375 252° West 171 197 5,900 180 Climbing Kansas City Center
06:26PM 37.6714 -97.5736 254° West 201 231 5,900 180 Level Kansas City Center
06:27PM 37.6669 -97.6092 261° West 190 219 6,100 120 Climbing Kansas City Center
06:28PM 37.6617 -97.6844 265° West 206 237 6,100 -120 Level Kansas City Center
06:29PM 37.5799 -97.8259 256° West  Level FlightAware Approximate
06:29PM 37.6553 -97.7608 264° West 213 245 5,900  Level Kansas City Center
06:30PM 37.6372 -97.8525 256° West 219 252 6,000  Climbing Kansas City Center
06:31PM 37.6208 -97.9272 255° West 219 252 6,000 -60 Level Kansas City Center
06:32PM 37.6108 -98.0019 260° West 219 252 5,900  Descending Kansas City Center
06:33PM 37.5986 -98.0775 258° West 218 251 6,000  Climbing Kansas City Center
06:34PM 37.5889 -98.1528 261° West 219 252 5,900 240 Descending Kansas City Center
06:35PM 37.5786 -98.2272 260° West 218 251 6,500 720 Climbing Kansas City Center
06:36PM 37.5636 -98.2931 254° West 206 237 7,400 720 Climbing Kansas City Center
06:37PM 37.5475 -98.3664 255° West 184 212 8,000 240 Climbing Kansas City Center
06:38PM 37.5394 -98.4333 261° West 186 214 8,000  Level Kansas City Center
06:39PM 37.5253 -98.5017 255° West 198 228 8,100 60 Climbing Kansas City Center
06:40PM 37.5083 -98.5717 253° West 203 234 8,200  Climbing Kansas City Center
06:41PM 37.4897 -98.6422 252° West 209 241 8,100  Descending Kansas City Center
06:42PM 37.4767 -98.7147 257° West 209 241 8,200  Climbing Kansas City Center
06:43PM 37.4625 -98.8011 258° West 209 241 8,200 -120 Level Kansas City Center
06:44PM 37.4578 -98.8736 265° West 209 241 8,000 -60 Descending Kansas City Center
06:45PM 37.4447 -98.9464 257° West 210 242 8,100  Climbing Kansas City Center
06:46PM 37.4294 -99.0183 255° West 210 242 8,100  Level Kansas City Center
06:47PM 37.4117 -99.0900 253° West 212 244 8,200  Climbing Kansas City Center
06:49PM 37.3989 -99.1622 257° West 212 244 8,200 -60 Level Kansas City Center
06:50PM 37.3839 -99.2494 258° West 212 244 8,100  Descending Kansas City Center
06:51PM 37.3681 -99.3214 255° West 212 244 8,200  Climbing Kansas City Center
06:52PM 37.3539 -99.3933 256° West 212 244 8,100 -60 Descending Kansas City Center
06:53PM 37.3372 -99.4678 254° West 212 244 8,100  Level Kansas City Center
06:54PM 37.3264 -99.5375 259° West 212 244 8,100 -60 Level Kansas City Center
06:55PM 37.3108 -99.6189 257° West 212 244 8,000 -60 Descending Kansas City Center
06:56PM 37.2939 -99.7014 256° West 213 245 8,000  Level Kansas City Center
06:57PM 37.2808 -99.7694 256° West 214 246 8,000  Level Kansas City Center
06:58PM 37.2658 -99.8400 255° West 214 246 8,000  Level Kansas City Center
06:59PM 37.2519 -99.9219 258° West 214 246 8,000  Level Kansas City Center
07:00PM 37.2419 -99.9928 260° West 214 246 8,000  Level Kansas City Center
07:01PM 37.2261 -100.0756 257° West 214 246 8,000  Level Kansas City Center
07:02PM 37.2119 -100.1461 256° West 215 247 8,000  Level Kansas City Center
07:03PM 37.1906 -100.2289 252° West 218 251 8,000  Level Kansas City Center
07:04PM 37.1517 -100.2875 230° Southwest 227 261 8,000 -60 Level Kansas City Center
07:05PM 37.1064 -100.3564 231° Southwest 228 262 7,900 -300 Descending Kansas City Center
07:06PM 37.0672 -100.4192 232° Southwest 230 265 7,400 -540 Descending Kansas City Center
07:07PM 37.0175 -100.4931 230° Southwest 243 280 6,900 -480 Descending Kansas City Center
07:08PM 36.9764 -100.5556 231° Southwest 243 280 6,400 -480 Descending Kansas City Center
07:09PM 36.9300 -100.6286 232° Southwest 243 280 6,000 -240 Descending Kansas City Center
07:10PM 36.8958 -100.6875 234° Southwest 232 267 6,000  Level Kansas City Center
07:11PM 36.8603 -100.7431 231° Southwest 221 254 6,000  Level Kansas City Center
07:12PM 36.8269 -100.8172 241° Southwest 224 258 6,000 -60 Level Kansas City Center
07:13PM 36.8178 -100.8892 261° West 224 258 5,900 -540 Descending Kansas City Center
07:14PM 36.8353 -100.9631 287° West 224 258 5,000 -480 Descending Kansas City Center
07:15PM 36.8778 -100.9617 North 181 208 5,000  Level Kansas City Center